Olney, TX

1:18 AM CST on December 27, 2014 (GMT -0600)
Wichita Falls | Change Station
CLOSE
Current Station
Airport
Location: Wichita Falls,
Elevation: 997 ft
Nearby Weather Stations

Elev 997 ft 33.86 °N, 98.49 °W | Updated 3 minutes ago

Overcast
Overcast
41 °F
Feels Like 33 °F
N
13
Wind Variable Wind from North
Gusts 18 mph

Today
High -- | Low -- °F
--% Chance of Precip.
Yesterday
High -- | Low -- °F
Precip. -- in
7:37 AM 5:34 PM
Waxing Crescent, 33% visible
Pressure 30.12 in
Visibility 10.0 miles
Clouds Overcast 4000 ft
Windchill 33 °F
Dew Point 31 °F
Humidity 69%
Rainfall 0.00 in
Snow Depth Not available.
UV 0 out of 12
Pollen 9.50 out of 12
Air Quality Not available.
Flu Activity Not available.
METAR KCWC 270715Z AUTO 36011G16KT 10SM OVC040 05/00 A3012 RMK AO2 T00481004

More Conditions Fewer Conditions

Pressure 30.12 in
Visibility 10.0 miles
Clouds Overcast 4000 ft
Windchill 33 °F
Dew Point 31 °F
Humidity 69%
Rainfall 0.00 in
Snow Depth Not available.
UV 0 out of 12
Pollen 9.50 out of 12
Air Quality Not available.
Flu Activity Not available.
METAR KCWC 270715Z AUTO 36011G16KT 10SM OVC040 05/00 A3012 RMK AO2 T00481004

More Conditions Fewer Conditions

Nowcast | as of 12:38 am CST on December 27, 2014

A cold front will move from a Gainesville to Decatur to Comanche line and reach a Bonham...Dallas...to Goldthwaite line by 3 am. Scattered showers will develop near and just ahead of the front while patchy drizzle and fog will prevail out ahead of the front through the pre-dawn hours. A few locations may see brief dense fog that will reduce the visibility below a half mile. Total rainfall amounts will average less than one tenth of an inch for areas that do see rain.

×

10-Day Weather Forecast

Almanac

Astronomy

Dec. 27, 2014 Rise Set
Actual Time
Civil Twilight
Nautical Twilight
Astronomical Twilight
Moon
Length of Visible Light
Length of Day
Tomorrow will be .
, % of the Moon is Illuminated

Today's Extremes

State Highs State Lows

Community

WunderPhotos

Upload Photos

1,780,863 photos uploaded!

WunderBlogs® & News

Nearby

Air Quality

  Air Quality AQ Index Pollutant
Not available.

Snow Depth

Station Depth Elevation

Earthquake Activity

City Distance Mag. Time & Date
Minimum magnitude displayed is 2.5.

Coastal Water Temperatures

Place Temperature

Nearby Weather Stations